Terminal Aerodrome Forecast
Issued by NWS Sioux Falls, SD

Home | Current Version | Previous Version | Graphics & Text | Print | Product List | Glossary Off
Versions: 1 2 3 4 5 6 7 8 9 10 11 12 13 14 15 16

337
FTUS43 KFSD 021122
TAFHON
TAF
KHON 021122Z 0212/0312 35004KT P6SM OVC015
     FM021700 33005KT P6SM OVC025
     FM030300 23004KT P6SM SCT035
     FM031100 18006KT P6SM BKN050=

USA.gov is the U.S. government's official web portal to all federal, state and local government web resources and services.